Have a Safe July 4th! 

Flight Track Log - Related Links

Times and Time Zones

All times are in EDT time to prevent confusion due to time zone crossing. See the JIA2353 flight status page for this flight to view local times or setup timezone preferences in your user account.

Time Position Orientation Groundspeed Altitude Reporting Facility
EDT Latitude Longitude Course Direction KTS MPH feet Rate Location/Type
Mon 02:29:51 PM 38.8833 -77.0667 228° Southwest 165 190 2,100  Level Potomac TRACON
Mon 02:30:52 PM 38.9333 -77.1167 322° Northwest 239 275 4,400 2,766 Climbing Potomac TRACON
Mon 02:31:00 PM 38.6094 -77.2979 221° Southwest  Level FlightAware Approximate
Mon 02:32:00 PM 38.5279 -77.3904 225° Southwest  Level FlightAware Approximate
Mon 02:32:38 PM 38.9961 -77.2289 306° West 255 293 9,800  Level Washington Center
Mon 02:33:00 PM 38.4510 -77.4892 225° Southwest  Level FlightAware Approximate
Mon 02:33:36 PM 38.9803 -77.3086 256° West 239 275 12,300  Level Washington Center
Mon 02:34:00 PM 38.3702 -77.5763 237° Southwest  Level FlightAware Approximate
Mon 02:34:37 PM 38.9025 -77.3522 204° Southwest 219 252 14,800  Level Washington Center
Mon 02:35:00 PM 38.3061 -77.6882 228° Southwest  Level FlightAware Approximate
Mon 02:35:38 PM 38.8167 -77.3875 198° South 266 306 15,100  Level Washington Center
Mon 02:36:35 PM 38.7306 -77.4253 199° South 301 346 17,000 1,932 Climbing Washington Center
Mon 02:37:36 PM 38.6444 -77.4631 199° South 322 371 18,900 1,934 Climbing Washington Center
Mon 02:38:36 PM 38.5583 -77.5006 199° South 330 380 20,900 1,785 Climbing Washington Center
Mon 02:39:37 PM 38.4744 -77.5356 198° South 323 372 22,500 1,426 Climbing Washington Center
Mon 02:40:38 PM 38.3903 -77.5783 202° Southwest 328 377 23,800 1,169 Climbing Washington Center
Mon 02:41:35 PM 38.3183 -77.6453 216° Southwest 328 377 24,800 1,017 Climbing Washington Center
Mon 02:42:36 PM 38.2442 -77.7147 216° Southwest 328 377 25,800 984 Climbing Washington Center
Mon 02:43:37 PM 38.1678 -77.7811 214° Southwest 334 384 26,800 689 Climbing Washington Center
Mon 02:44:38 PM 38.0917 -77.8503 216° Southwest 339 390 27,200 454 Climbing Washington Center
Mon 02:45:36 PM 38.0175 -77.9111 213° Southwest 344 396 27,700 508 Climbing Washington Center
Mon 02:46:36 PM 37.9367 -77.9825 215° Southwest 349 402 28,200 694 Climbing Washington Center
Mon 02:47:37 PM 37.8539 -78.0586 216° Southwest 362 417 29,100 893 Climbing Washington Center
Mon 02:48:37 PM 37.7711 -78.1244 212° Southwest 362 417 30,000 446 Climbing Washington Center
Mon 02:49:38 PM 37.6817 -78.2053 216° Southwest 362 417 30,000  Level Washington Center
Mon 02:50:36 PM 37.6011 -78.2733 214° Southwest 376 433 30,000  Level Washington Center
Mon 02:51:36 PM 37.5097 -78.3486 213° Southwest 388 447 30,000  Level Washington Center
Mon 02:52:37 PM 37.4181 -78.4264 214° Southwest 394 453 30,000 248 Level Washington Center
Mon 02:53:37 PM 37.3267 -78.5039 214° Southwest 401 461 30,500 545 Climbing Washington Center
Mon 02:54:38 PM 37.2244 -78.5861 213° Southwest 401 461 31,100 555 Climbing Washington Center
Mon 02:55:36 PM 37.1350 -78.6608 214° Southwest 401 461 31,600 458 Climbing Washington Center
Mon 02:56:36 PM 37.0431 -78.7406 215° Southwest 401 461 32,000 198 Climbing Washington Center
Mon 02:57:37 PM 36.9514 -78.8172 214° Southwest 401 461 32,000  Level Washington Center
Mon 02:58:38 PM 36.8658 -78.8967 217° Southwest 401 461 32,000  Level Washington Center
Mon 02:59:36 PM 36.8111 -78.9906 234° Southwest 386 444 32,000  Level Washington Center
Mon 03:00:36 PM 36.7494 -79.0967 234° Southwest 386 444 32,000  Level Washington Center
Mon 03:01:37 PM 36.6881 -79.2025 234° Southwest 386 444 32,000  Level Washington Center
Mon 03:02:37 PM 36.6264 -79.3083 234° Southwest 386 444 32,000  Level Washington Center
Mon 03:03:38 PM 36.5625 -79.4139 233° Southwest 386 444 32,000  Level Washington Center
Mon 03:04:36 PM 36.4939 -79.5294 234° Southwest 386 444 32,000  Level Washington Center
Mon 03:05:43 PM 36.4300 -79.6392 234° Southwest 366 421 32,000  Level Atlanta Center
Mon 03:06:43 PM 36.3611 -79.7564 234° Southwest 379 436 32,000  Level Atlanta Center
Mon 03:07:43 PM 36.2978 -79.8603 233° Southwest 384 442 32,000  Level Atlanta Center
Mon 03:08:43 PM 36.2328 -79.9692 234° Southwest 384 442 32,000  Level Atlanta Center
Mon 03:09:43 PM 36.1694 -80.0728 233° Southwest 389 448 32,000  Level Atlanta Center
Mon 03:10:44 PM 36.1061 -80.1811 234° Southwest 389 448 32,000  Level Atlanta Center
Mon 03:11:43 PM 36.0486 -80.2764 233° Southwest 397 457 32,000  Level Atlanta Center
Mon 03:12:43 PM 35.9831 -80.3819 233° Southwest 397 457 32,000  Level Atlanta Center
Mon 03:13:43 PM 35.9156 -80.5056 236° Southwest 397 457 32,000  Level Atlanta Center
Mon 03:14:43 PM 35.8539 -80.6108 234° Southwest 397 457 32,000  Level Atlanta Center
Mon 03:15:43 PM 35.7839 -80.7186 231° Southwest 392 451 32,000  Level Atlanta Center
Mon 03:16:43 PM 35.7258 -80.8131 233° Southwest 400 460 32,000  Level Atlanta Center
Mon 03:17:43 PM 35.6597 -80.9181 232° Southwest 400 460 32,000  Level Atlanta Center
Mon 03:18:43 PM 35.5956 -81.0225 233° Southwest 395 455 32,000  Level Atlanta Center
Mon 03:19:43 PM 35.5214 -81.1400 232° Southwest 395 455 32,000  Level Atlanta Center
Mon 03:20:43 PM 35.4531 -81.2522 233° Southwest 401 461 32,000  Level Atlanta Center
Mon 03:21:43 PM 35.3867 -81.3614 233° Southwest 406 467 32,000  Level Atlanta Center
Mon 03:22:43 PM 35.3222 -81.4703 234° Southwest 406 467 32,000  Level Atlanta Center
Mon 03:23:43 PM 35.2556 -81.5767 233° Southwest 399 459 32,000  Level Atlanta Center
Mon 03:24:44 PM 35.1906 -81.6778 232° Southwest 404 465 32,000  Level Atlanta Center
Mon 03:25:43 PM 35.1258 -81.7864 234° Southwest 404 465 32,000  Level Atlanta Center
Mon 03:26:43 PM 35.0569 -81.8922 232° Southwest 404 465 32,000  Level Atlanta Center
Mon 03:27:43 PM 34.9900 -82.0031 234° Southwest 404 465 32,000  Level Atlanta Center
Mon 03:28:43 PM 34.9228 -82.1136 233° Southwest 409 471 32,000  Level Atlanta Center
Mon 03:29:43 PM 34.8475 -82.2342 233° Southwest 409 471 32,000  Level Atlanta Center
Mon 03:30:43 PM 34.7803 -82.3469 234° Southwest 414 476 32,000  Level Atlanta Center
Mon 03:31:43 PM 34.7108 -82.4619 234° Southwest 419 482 32,000  Level Atlanta Center
Mon 03:32:43 PM 34.6411 -82.5744 233° Southwest 419 482 32,000  Level Atlanta Center
Mon 03:33:43 PM 34.5717 -82.6892 234° Southwest 425 489 32,000  Level Atlanta Center
Mon 03:34:43 PM 34.5058 -82.7911 232° Southwest 431 496 32,000  Level Atlanta Center
Mon 03:35:43 PM 34.4381 -82.9053 234° Southwest 431 496 32,000  Level Atlanta Center
Mon 03:36:43 PM 34.3661 -83.0222 233° Southwest 431 496 32,000  Level Atlanta Center
Mon 03:37:43 PM 34.2981 -83.1336 234° Southwest 431 496 32,000  Level Atlanta Center
Mon 03:38:43 PM 34.2278 -83.2422 232° Southwest 426 490 32,000  Level Atlanta Center
Mon 03:39:43 PM 34.1575 -83.3558 233° Southwest 421 484 32,000  Level Atlanta Center
Mon 03:40:43 PM 34.0811 -83.4769 233° Southwest 421 484 32,000  Level Atlanta Center
Mon 03:41:43 PM 34.0125 -83.5853 233° Southwest 416 479 32,000  Level Atlanta Center
Mon 03:42:43 PM 33.9419 -83.6958 232° Southwest 416 479 32,000  Level Atlanta Center
Mon 03:43:43 PM 33.8733 -83.8061 233° Southwest 416 479 32,000  Level Atlanta Center
Mon 03:44:43 PM 33.8047 -83.9114 232° Southwest 416 479 32,000  Level Atlanta Center
Mon 03:45:43 PM 33.7358 -84.0214 233° Southwest 416 479 32,000  Level Atlanta Center
Mon 03:46:43 PM 33.6669 -84.1286 232° Southwest 416 479 32,000  Level Atlanta Center
Mon 03:47:43 PM 33.6064 -84.2258 233° Southwest 416 479 32,000  Level Atlanta Center
Mon 03:48:43 PM 33.5350 -84.3328 231° Southwest 416 479 32,000  Level Atlanta Center
Mon 03:49:43 PM 33.4681 -84.4397 233° Southwest 416 479 32,000  Level Atlanta Center
Mon 03:50:43 PM 33.3967 -84.5464 231° Southwest 416 479 32,000  Level Atlanta Center
Mon 03:51:43 PM 33.3231 -84.6603 232° Southwest 416 479 32,000  Level Atlanta Center
Mon 03:52:43 PM 33.2578 -84.7642 233° Southwest 416 479 32,000  Level Atlanta Center
Mon 03:53:43 PM 33.1883 -84.8728 233° Southwest 416 479 32,000  Level Atlanta Center
Mon 03:54:43 PM 33.1186 -84.9739 231° Southwest 410 472 32,000  Level Atlanta Center
Mon 03:55:43 PM 33.0531 -85.0772 233° Southwest 405 466 32,000  Level Atlanta Center
Mon 03:56:43 PM 32.9875 -85.1731 231° Southwest 405 466 32,000  Level Atlanta Center
Mon 03:57:43 PM 32.9178 -85.2761 231° Southwest 400 460 32,000  Level Atlanta Center
Mon 03:58:43 PM 32.8497 -85.3789 232° Southwest 395 455 32,000  Level Atlanta Center
Mon 03:59:43 PM 32.7839 -85.4817 233° Southwest 395 455 32,000  Level Atlanta Center
Mon 04:00:43 PM 32.7181 -85.5819 232° Southwest 395 455 32,000  Level Atlanta Center
Mon 04:01:43 PM 32.6500 -85.6844 232° Southwest 395 455 32,000  Level Atlanta Center
Mon 04:02:43 PM 32.5797 -85.7867 231° Southwest 390 449 32,000  Level Atlanta Center
Mon 04:03:43 PM 32.5156 -85.8839 232° Southwest 390 449 32,000  Level Atlanta Center
Mon 04:04:43 PM 32.4450 -85.9906 232° Southwest 396 456 32,000  Level Atlanta Center
Mon 04:05:43 PM 32.3744 -86.0900 230° Southwest 396 456 32,000  Level Atlanta Center
Mon 04:06:43 PM 32.3039 -86.1892 230° Southwest 396 456 32,000  Level Atlanta Center
Mon 04:07:43 PM 32.2525 -86.2664 232° Southwest 396 456 32,000  Level Atlanta Center
Mon 04:09:00 PM 32.1431 -86.3289 188° South  Level FlightAware Approximate
Mon 04:09:43 PM 32.0397 -86.3689 188° South 396 456 32,000  Level Atlanta Center
Mon 04:10:43 PM 31.9286 -86.3978 192° South 403 464 31,200 -1,729 Descending Atlanta Center
Mon 04:12:40 PM 31.7031 -86.4575 193° South 412 474 26,900 -2,216 Descending Jacksonville Center
Mon 04:13:39 PM 31.5833 -86.4872 192° South 430 495 24,700 -1,450 Descending Jacksonville Center
Mon 04:14:40 PM 31.4675 -86.5192 193° South 436 502 24,000 -942 Descending Jacksonville Center
Mon 04:15:40 PM 31.3644 -86.5444 192° South 407 468 22,800 -1,550 Descending Jacksonville Center
Mon 04:16:40 PM 31.2836 -86.5947 208° Southwest 383 441 20,900 -2,067 Descending Jacksonville Center
Mon 04:17:39 PM 31.2394 -86.6806 239° Southwest 319 367 18,700 -2,370 Descending Jacksonville Center
Mon 04:18:39 PM 31.1908 -86.7708 238° Southwest 324 373 16,200 -2,571 Descending Jacksonville Center
Mon 04:19:31 PM 31.1322 -86.8436 227° Southwest 348 400 13,900 -2,489 Descending Jacksonville Center
Mon 04:20:13 PM 31.0619 -86.8842 206° Southwest 365 420 12,300 -1,826 Descending Jacksonville Center
Mon 04:20:40 PM 31.0367 -86.8953 201° Southwest 340 391 11,800 -655 Descending Jacksonville Center
Mon 04:21:08 PM 30.9858 -86.9197 202° Southwest 331 381 11,700 -400 Descending Jacksonville Center
Mon 04:21:40 PM 30.9539 -86.9353 203° Southwest 334 384 11,400 -1,519 Descending Jacksonville Center
Mon 04:22:27 PM 30.8817 -86.9733 204° Southwest 293 337 9,700 -1,944 Descending Jacksonville Center
Mon 04:23:28 PM 30.8136 -87.0164 209° Southwest 290 334 7,900 -947 Descending Jacksonville Center
Mon 04:24:40 PM 30.8025 -87.1006 261° West 253 291 7,600 -440 Descending Jacksonville Center
Mon 04:25:17 PM 30.7733 -87.1597 240° Southwest 273 314 7,100 -508 Descending Jacksonville Center
Mon 04:25:39 PM 30.7586 -87.1639 194° South 248 285 7,100 -90 Level Jacksonville Center
Mon 04:26:24 PM 30.6967 -87.1417 163° South 281 323 7,000 -98 Descending Jacksonville Center
Mon 04:26:40 PM 30.6864 -87.1342 148° Southeast 212 244 7,000  Level Jacksonville Center
Mon 04:27:18 PM 30.6267 -87.1097 161° South 278 320 7,000 102 Level Jacksonville Center
Mon 04:27:39 PM 30.6125 -87.0994 148° Southeast 246 283 7,100  Climbing Jacksonville Center
Mon 04:28:19 PM 30.5611 -87.0778 160° South 270 311 7,000 -100 Descending Jacksonville Center
Mon 04:28:39 PM 30.5444 -87.0700 158° South 259 298 7,000  Level Jacksonville Center
Mon 04:29:20 PM 30.4878 -87.0844 192° South 252 290 7,000  Level Jacksonville Center
Mon 04:30:26 PM 30.4078 -87.1072 194° South 250 288 7,000  Level Jacksonville Center
Mon 04:31:27 PM 30.3403 -87.1236 192° South 250 288 7,000  Level Jacksonville Center
Mon 04:32:28 PM 30.2708 -87.1397 191° South 248 285 7,000  Level Jacksonville Center
Mon 04:33:35 PM 30.2003 -87.1317 174° South 257 296 7,000  Level Jacksonville Center
Mon 04:34:36 PM 30.1278 -87.1094 165° South 252 290 7,000  Level Jacksonville Center
Mon 04:35:37 PM 30.0792 -87.0664 143° Southeast 235 270 7,000  Level Jacksonville Center

Login

Don't have an account? Register now (free) for customized features, flight alerts, and more!